Time;durP1;ratioP1;P1;durP2;ratioP2;P2;SDS_P1;SDS_P2;PMS_P1;PMS_P2;Temp;Humidity;BMP_temperature;BMP_pressure;BME280_temperature;BME280_humidity;BME280_pressure;Samples;Min_cycle;Max_cycle;Signal;HPM_P1;HPM_P2
2021/10/22 00:01:12;;;;;;;21.13;13.15;;;;;;;;;;5093608;28;20048;-68
2021/10/22 00:03:38;;;;;;;24.90;15.80;;;;;;;;;;5093147;28;20095;-68
2021/10/22 00:06:05;;;;;;;22.73;15.32;;;;;;;;;;5093733;28;20089;-68
2021/10/22 00:08:31;;;;;;;22.73;14.23;;;;;;;;;;5093151;28;20035;-68
2021/10/22 00:10:57;;;;;;;23.50;15.38;;;;;;;;;;5093467;28;20365;-68
2021/10/22 00:13:23;;;;;;;21.05;13.75;;;;;;;;;;5093202;28;20082;-68
2021/10/22 00:15:50;;;;;;;24.08;14.43;;;;;;;;;;5093231;28;20052;-68
2021/10/22 00:18:19;;;;;;;22.27;12.82;;;;;;;;;;5093389;28;20077;-68
2021/10/22 00:20:45;;;;;;;21.42;13.38;;;;;;;;;;5093819;28;20023;-68
2021/10/22 00:23:12;;;;;;;24.25;15.00;;;;;;;;;;5092932;28;20099;-68
2021/10/22 00:25:38;;;;;;;19.92;13.10;;;;;;;;;;5093334;28;20537;-68
2021/10/22 00:28:04;;;;;;;21.48;14.02;;;;;;;;;;5093327;28;20510;-68
2021/10/22 00:30:30;;;;;;;20.23;14.13;;;;;;;;;;5093201;28;20024;-69
2021/10/22 00:32:56;;;;;;;23.15;14.68;;;;;;;;;;5093249;28;20038;-67
2021/10/22 00:35:23;;;;;;;19.92;12.60;;;;;;;;;;5093245;28;20024;-67
2021/10/22 00:37:49;;;;;;;22.63;12.80;;;;;;;;;;5092928;28;20020;-67
2021/10/22 00:40:17;;;;;;;19.35;13.43;;;;;;;;;;5091911;28;20480;-67
2021/10/22 00:42:43;;;;;;;21.17;13.40;;;;;;;;;;5093285;28;20020;-67
2021/10/22 00:45:09;;;;;;;21.60;13.80;;;;;;;;;;5092662;28;20427;-70
2021/10/22 00:47:36;;;;;;;19.65;11.88;;;;;;;;;;5093143;28;20024;-69
2021/10/22 00:50:02;;;;;;;20.40;13.50;;;;;;;;;;5093436;28;20025;-69
2021/10/22 00:52:29;;;;;;;22.58;13.23;;;;;;;;;;5092565;28;20476;-69
2021/10/22 00:54:57;;;;;;;24.55;14.57;;;;;;;;;;5093004;28;20050;-69
2021/10/22 00:57:23;;;;;;;22.38;14.27;;;;;;;;;;5091762;28;20028;-68
2021/10/22 00:59:50;;;;;;;24.88;14.43;;;;;;;;;;5095530;28;20031;-68
2021/10/22 01:02:16;;;;;;;18.17;12.60;;;;;;;;;;5097138;28;20028;-69
2021/10/22 01:04:43;;;;;;;24.83;14.35;;;;;;;;;;5095198;28;20024;-69
2021/10/22 01:07:13;;;;;;;26.15;16.83;;;;;;;;;;5096797;28;20101;-69
2021/10/22 01:09:39;;;;;;;28.33;16.13;;;;;;;;;;5096802;28;20016;-68
2021/10/22 01:12:05;;;;;;;28.92;15.15;;;;;;;;;;5096107;28;20446;-69
2021/10/22 01:14:32;;;;;;;21.20;13.38;;;;;;;;;;5095680;28;20027;-68
2021/10/22 01:16:58;;;;;;;19.10;12.63;;;;;;;;;;5096592;28;20436;-69
2021/10/22 01:19:24;;;;;;;22.20;12.80;;;;;;;;;;5096125;28;20024;-69
2021/10/22 01:21:50;;;;;;;23.35;14.73;;;;;;;;;;5096456;28;20415;-69
2021/10/22 01:24:18;;;;;;;24.42;14.80;;;;;;;;;;5096747;28;20028;-69
2021/10/22 01:26:44;;;;;;;25.00;15.05;;;;;;;;;;5096307;28;20032;-69
2021/10/22 01:29:10;;;;;;;27.70;16.23;;;;;;;;;;5096679;28;20023;-69
2021/10/22 01:31:37;;;;;;;24.15;15.95;;;;;;;;;;5096232;28;20107;-69
2021/10/22 01:34:04;;;;;;;27.40;16.48;;;;;;;;;;5095874;28;20376;-69
2021/10/22 01:36:33;;;;;;;26.30;16.00;;;;;;;;;;5096236;28;20051;-69
2021/10/22 01:38:59;;;;;;;24.05;14.63;;;;;;;;;;5096124;28;20023;-68
2021/10/22 01:41:25;;;;;;;21.23;14.63;;;;;;;;;;5095812;28;20028;-68
2021/10/22 01:43:53;;;;;;;24.00;13.65;;;;;;;;;;5096411;28;20043;-69
2021/10/22 01:46:19;;;;;;;18.60;12.43;;;;;;;;;;5096103;28;20169;-67
2021/10/22 01:48:47;;;;;;;23.17;12.93;;;;;;;;;;5095562;28;20560;-69
2021/10/22 01:51:13;;;;;;;22.85;14.68;;;;;;;;;;5095880;28;20107;-67
2021/10/22 01:53:39;;;;;;;22.08;14.10;;;;;;;;;;5096281;28;20036;-67
2021/10/22 01:56:05;;;;;;;22.20;12.70;;;;;;;;;;5095461;28;20016;-67
2021/10/22 01:58:31;;;;;;;26.95;14.55;;;;;;;;;;5095759;28;20132;-67
2021/10/22 02:00:58;;;;;;;26.27;16.60;;;;;;;;;;5095356;28;20422;-67
2021/10/22 02:03:24;;;;;;;23.40;14.55;;;;;;;;;;5094420;28;20021;-67
2021/10/22 02:05:50;;;;;;;22.80;15.30;;;;;;;;;;5095881;28;20138;-67
2021/10/22 02:08:16;;;;;;;27.48;18.30;;;;;;;;;;5093891;28;20366;-67
2021/10/22 02:10:43;;;;;;;25.63;16.90;;;;;;;;;;5095463;28;20028;-67
2021/10/22 02:13:09;;;;;;;27.55;16.33;;;;;;;;;;5095336;28;20380;-67
2021/10/22 02:15:35;;;;;;;27.10;17.52;;;;;;;;;;5095315;28;20023;-67
2021/10/22 02:18:01;;;;;;;32.28;19.80;;;;;;;;;;5095329;28;20048;-67
2021/10/22 02:20:28;;;;;;;36.95;20.67;;;;;;;;;;5095906;28;20032;-67
2021/10/22 02:22:54;;;;;;;37.00;20.17;;;;;;;;;;5094861;28;20048;-67
2021/10/22 02:25:22;;;;;;;35.80;20.20;;;;;;;;;;5095491;28;20441;-67
2021/10/22 02:27:48;;;;;;;37.63;21.40;;;;;;;;;;5095391;28;20073;-68
2021/10/22 02:30:14;;;;;;;37.17;21.08;;;;;;;;;;5093492;28;20028;-67
2021/10/22 02:32:40;;;;;;;32.67;18.77;;;;;;;;;;5095257;28;20445;-68
2021/10/22 02:35:07;;;;;;;25.13;15.82;;;;;;;;;;5095094;28;20100;-67
2021/10/22 02:37:33;;;;;;;25.02;14.70;;;;;;;;;;5094721;28;20028;-67
2021/10/22 02:39:59;;;;;;;22.38;13.90;;;;;;;;;;5094941;28;20388;-67
2021/10/22 02:42:25;;;;;;;22.55;14.57;;;;;;;;;;5094999;28;20054;-67
2021/10/22 02:44:51;;;;;;;23.10;14.38;;;;;;;;;;5093161;28;20028;-67
2021/10/22 02:47:17;;;;;;;25.58;16.70;;;;;;;;;;5094808;28;20030;-67
2021/10/22 02:49:44;;;;;;;20.23;13.00;;;;;;;;;;5094786;28;20016;-68
2021/10/22 02:52:10;;;;;;;22.23;14.75;;;;;;;;;;5094255;28;20047;-67
2021/10/22 02:54:36;;;;;;;21.67;13.45;;;;;;;;;;5095011;28;20561;-67
2021/10/22 02:57:02;;;;;;;21.23;13.32;;;;;;;;;;5094861;28;20375;-67
2021/10/22 02:59:28;;;;;;;21.90;13.68;;;;;;;;;;5094166;28;20025;-67
2021/10/22 03:01:55;;;;;;;21.88;14.57;;;;;;;;;;5094568;28;20024;-67
2021/10/22 03:04:21;;;;;;;21.88;13.90;;;;;;;;;;5094270;28;20409;-67
2021/10/22 03:06:47;;;;;;;19.23;12.93;;;;;;;;;;5094687;28;20016;-69
2021/10/22 03:09:13;;;;;;;20.05;12.65;;;;;;;;;;5094645;28;20051;-67
2021/10/22 03:11:39;;;;;;;27.00;14.02;;;;;;;;;;5093736;28;20043;-67
2021/10/22 03:14:05;;;;;;;20.40;13.55;;;;;;;;;;5094325;28;20027;-67
2021/10/22 03:16:32;;;;;;;18.73;12.18;;;;;;;;;;5094226;28;20099;-67
2021/10/22 03:18:58;;;;;;;20.15;12.77;;;;;;;;;;5093812;28;20020;-67
2021/10/22 03:21:24;;;;;;;23.67;15.27;;;;;;;;;;5093753;28;20104;-67
2021/10/22 03:23:55;;;;;;;21.98;14.93;;;;;;;;;;5094255;28;20077;-67
2021/10/22 03:26:21;;;;;;;22.05;13.77;;;;;;;;;;5092518;28;20119;-67
2021/10/22 03:28:47;;;;;;;24.95;14.00;;;;;;;;;;5094078;28;20024;-67
2021/10/22 03:31:13;;;;;;;18.55;11.93;;;;;;;;;;5094157;28;20048;-67
2021/10/22 03:33:40;;;;;;;22.17;14.63;;;;;;;;;;5093694;28;20086;-67
2021/10/22 03:36:06;;;;;;;20.58;11.95;;;;;;;;;;5093907;28;20107;-68
2021/10/22 03:38:32;;;;;;;18.83;13.23;;;;;;;;;;5092649;28;20030;-67
2021/10/22 03:40:58;;;;;;;20.08;12.90;;;;;;;;;;5093414;28;20103;-67
2021/10/22 03:43:25;;;;;;;19.15;12.57;;;;;;;;;;5093817;28;20028;-68
2021/10/22 03:45:51;;;;;;;19.23;12.65;;;;;;;;;;5092493;28;20541;-67
2021/10/22 03:48:17;;;;;;;23.60;13.85;;;;;;;;;;5093299;28;20121;-67
2021/10/22 03:50:43;;;;;;;25.25;16.92;;;;;;;;;;5094089;28;20024;-68
2021/10/22 03:53:09;;;;;;;26.25;15.65;;;;;;;;;;5092380;28;20523;-69
2021/10/22 03:55:36;;;;;;;24.35;15.13;;;;;;;;;;5093322;28;20051;-67
2021/10/22 03:58:02;;;;;;;29.05;15.32;;;;;;;;;;5093635;28;20024;-68
2021/10/22 04:00:28;;;;;;;21.73;13.77;;;;;;;;;;5093573;28;20026;-68
2021/10/22 04:02:54;;;;;;;23.33;14.68;;;;;;;;;;5093278;28;20032;-68
2021/10/22 04:05:20;;;;;;;25.25;16.13;;;;;;;;;;5093600;28;20465;-68
2021/10/22 04:07:46;;;;;;;27.77;17.13;;;;;;;;;;5093143;28;20099;-68
2021/10/22 04:10:13;;;;;;;32.70;18.92;;;;;;;;;;5093489;28;20024;-68
2021/10/22 04:12:39;;;;;;;35.42;18.75;;;;;;;;;;5093301;28;20044;-68
2021/10/22 04:15:05;;;;;;;30.38;17.48;;;;;;;;;;5092986;28;20020;-67
2021/10/22 04:17:32;;;;;;;32.15;16.30;;;;;;;;;;5093463;28;20095;-68
2021/10/22 04:19:58;;;;;;;25.02;15.25;;;;;;;;;;5093382;28;20037;-68
2021/10/22 04:22:24;;;;;;;22.00;14.05;;;;;;;;;;5091735;28;20514;-70
2021/10/22 04:24:50;;;;;;;22.77;13.88;;;;;;;;;;5092194;28;20042;-69
2021/10/22 04:27:17;;;;;;;22.13;13.55;;;;;;;;;;5093372;28;20020;-70
2021/10/22 04:29:43;;;;;;;24.00;14.70;;;;;;;;;;5093067;28;20376;-70
2021/10/22 04:32:09;;;;;;;46.47;26.20;;;;;;;;;;5093368;28;20016;-69
2021/10/22 04:34:36;;;;;;;55.53;32.85;;;;;;;;;;5096005;28;20068;-69
2021/10/22 04:42:31;;;;;;;53.83;31.10;;;;;;;;;;5097314;28;20443;-69
2021/10/22 04:44:57;;;;;;;49.67;29.02;;;;;;;;;;5096731;28;20038;-69
2021/10/22 04:47:23;;;;;;;38.83;24.73;;;;;;;;;;5097152;28;20468;-69
2021/10/22 04:49:50;;;;;;;36.20;24.48;;;;;;;;;;5096732;28;20103;-67
2021/10/22 04:52:16;;;;;;;38.85;24.98;;;;;;;;;;5097261;28;20035;-67
2021/10/22 04:54:42;;;;;;;37.80;23.60;;;;;;;;;;5096979;28;20035;-68
2021/10/22 04:57:08;;;;;;;32.20;19.85;;;;;;;;;;5096579;28;20024;-67
2021/10/22 04:59:34;;;;;;;30.25;19.85;;;;;;;;;;5096918;28;20424;-67
2021/10/22 05:02:00;;;;;;;36.22;24.85;;;;;;;;;;5096935;28;20031;-67
2021/10/22 05:04:26;;;;;;;39.55;24.75;;;;;;;;;;5096405;28;20055;-68
2021/10/22 05:06:53;;;;;;;36.50;22.83;;;;;;;;;;5096803;28;20024;-68
2021/10/22 05:09:19;;;;;;;39.00;24.42;;;;;;;;;;5096765;28;20134;-69
2021/10/22 05:11:46;;;;;;;42.30;26.63;;;;;;;;;;5096194;28;20085;-68
2021/10/22 05:14:12;;;;;;;35.80;23.77;;;;;;;;;;5094939;28;20042;-67
2021/10/22 05:16:38;;;;;;;44.75;28.25;;;;;;;;;;5093738;28;20027;-73
2021/10/22 05:19:04;;;;;;;52.17;32.58;;;;;;;;;;5095017;28;20024;-73
2021/10/22 05:21:31;;;;;;;55.78;26.90;;;;;;;;;;5096080;28;20027;-72
2021/10/22 05:23:57;;;;;;;32.20;17.45;;;;;;;;;;5097144;28;20028;-74
2021/10/22 05:26:23;;;;;;;27.20;15.60;;;;;;;;;;5094847;28;20072;-74
2021/10/22 05:28:49;;;;;;;26.30;16.05;;;;;;;;;;5095984;28;20059;-74
2021/10/22 05:31:16;;;;;;;29.27;16.70;;;;;;;;;;5097491;28;20017;-77
2021/10/22 05:33:42;;;;;;;33.17;18.20;;;;;;;;;;5095785;28;20043;-74
2021/10/22 05:36:08;;;;;;;132.07;71.25;;;;;;;;;;5096662;28;20387;-75
2021/10/22 05:38:34;;;;;;;91.68;50.85;;;;;;;;;;5095146;28;20093;-73
2021/10/22 05:41:01;;;;;;;71.50;43.28;;;;;;;;;;5098138;28;20378;-79
2021/10/22 05:43:27;;;;;;;49.83;29.92;;;;;;;;;;5109003;28;20020;-74
2021/10/22 05:45:53;;;;;;;39.53;26.05;;;;;;;;;;5093160;28;20020;-74
2021/10/22 05:48:19;;;;;;;33.95;21.88;;;;;;;;;;5094675;28;20384;-73
2021/10/22 05:50:46;;;;;;;38.53;22.92;;;;;;;;;;5095085;28;20578;-73
2021/10/22 05:53:12;;;;;;;40.15;24.52;;;;;;;;;;5093052;28;20081;-74
2021/10/22 05:55:38;;;;;;;44.03;23.95;;;;;;;;;;5093411;28;20703;-73
2021/10/22 05:58:05;;;;;;;49.90;27.00;;;;;;;;;;5092913;28;20032;-70
2021/10/22 06:00:32;;;;;;;49.20;27.80;;;;;;;;;;5092215;28;20008;-73
2021/10/22 06:02:58;;;;;;;55.33;31.00;;;;;;;;;;5093313;28;20039;-74
2021/10/22 06:05:24;;;;;;;45.75;28.50;;;;;;;;;;5093868;28;20532;-74
2021/10/22 06:07:51;;;;;;;50.53;26.60;;;;;;;;;;5094706;28;20048;-74
2021/10/22 06:10:17;;;;;;;50.63;29.95;;;;;;;;;;5095208;28;20089;-74
2021/10/22 06:12:43;;;;;;;44.90;23.95;;;;;;;;;;5094820;28;20568;-77
2021/10/22 06:15:10;;;;;;;36.03;23.27;;;;;;;;;;5094455;28;20392;-77
2021/10/22 06:17:36;;;;;;;37.05;23.83;;;;;;;;;;5094276;28;20047;-78
2021/10/22 06:20:10;;;;;;;37.83;23.13;;;;;;;;;;5091865;28;20020;-83
2021/10/22 06:23:52;;;;;;;45.97;26.42;;;;;;;;;;5093090;28;20362;-77
2021/10/22 06:25:26;;;;;;;47.30;29.65;;;;;;;;;;5094848;28;20038;-79
2021/10/22 06:27:52;;;;;;;42.60;25.83;;;;;;;;;;5094432;28;20027;-75
2021/10/22 06:30:18;;;;;;;43.92;29.23;;;;;;;;;;5093961;28;20028;-75
2021/10/22 06:32:44;;;;;;;61.63;36.20;;;;;;;;;;5087347;28;20089;-74
2021/10/22 06:35:11;;;;;;;46.03;28.33;;;;;;;;;;5101919;28;20020;-74
2021/10/22 06:37:37;;;;;;;36.00;22.02;;;;;;;;;;5113923;28;20087;-74
2021/10/22 06:40:03;;;;;;;45.72;24.75;;;;;;;;;;5089486;28;20024;-76
2021/10/22 06:42:29;;;;;;;32.10;21.73;;;;;;;;;;5091476;28;20487;-74
2021/10/22 06:44:56;;;;;;;36.40;22.10;;;;;;;;;;5093153;28;20058;-74
2021/10/22 06:47:22;;;;;;;40.22;24.17;;;;;;;;;;5091993;28;20031;-74
2021/10/22 06:49:48;;;;;;;33.25;20.55;;;;;;;;;;5092526;28;20047;-79
2021/10/22 06:52:14;;;;;;;36.25;22.25;;;;;;;;;;5089623;28;20716;-78
2021/10/22 06:54:40;;;;;;;32.00;18.98;;;;;;;;;;5093159;28;20032;-78
2021/10/22 06:57:07;;;;;;;32.85;18.38;;;;;;;;;;5091623;28;20056;-78
2021/10/22 06:59:33;;;;;;;26.00;15.57;;;;;;;;;;5092292;28;20094;-75
2021/10/22 07:01:59;;;;;;;26.00;15.35;;;;;;;;;;5091935;28;20038;-73
2021/10/22 07:04:29;;;;;;;21.60;14.50;;;;;;;;;;5090808;28;20066;-77
2021/10/22 07:14:11;;;;;;;22.33;16.08;;;;;;;;;;5098171;27;20350;-72
2021/10/22 07:16:42;;;;;;;32.75;21.58;;;;;;;;;;5087128;28;20082;-70
2021/10/22 07:19:08;;;;;;;23.65;16.85;;;;;;;;;;5064535;28;20477;-71
2021/10/22 07:24:37;;;;;;;28.98;16.70;;;;;;;;;;5109674;27;20458;-70
2021/10/22 07:27:27;;;;;;;23.38;14.70;;;;;;;;;;5150971;27;20758;-72
2021/10/22 07:29:53;;;;;;;28.38;19.52;;;;;;;;;;5150910;27;20034;-68
2021/10/22 07:32:20;;;;;;;30.90;18.63;;;;;;;;;;5149497;27;20081;-72
2021/10/22 07:34:46;;;;;;;47.08;27.10;;;;;;;;;;5150124;27;20064;-71
2021/10/22 07:37:12;;;;;;;32.00;20.63;;;;;;;;;;5149250;27;20506;-71
2021/10/22 07:41:07;;;;;;;27.25;17.90;;;;;;;;;;5108364;27;20457;-74
2021/10/22 07:43:34;;;;;;;23.98;17.10;;;;;;;;;;5108663;28;20024;-73
2021/10/22 07:46:22;;;;;;;48.03;23.95;;;;;;;;;;5108866;27;20393;-72
2021/10/22 07:50:18;;;;;;;27.95;17.40;;;;;;;;;;5106589;27;20829;-73
2021/10/22 07:52:45;;;;;;;27.90;16.83;;;;;;;;;;5105050;28;20032;-72
2021/10/22 07:58:12;;;;;;;36.05;22.55;;;;;;;;;;5083981;27;20483;-72
2021/10/22 08:02:17;;;;;;;28.98;17.33;;;;;;;;;;4975388;27;2534883;-71
2021/10/22 08:05:44;;;;;;;27.73;17.38;;;;;;;;;;5161944;27;20345;-73
2021/10/22 08:08:10;;;;;;;37.80;24.42;;;;;;;;;;5149863;27;20031;-71
2021/10/22 08:10:38;;;;;;;31.25;20.15;;;;;;;;;;5148212;27;20068;-73
2021/10/22 08:13:09;;;;;;;40.80;24.00;;;;;;;;;;5130601;27;20027;-73
2021/10/22 08:15:37;;;;;;;29.70;18.38;;;;;;;;;;5146672;27;20125;-72
2021/10/22 08:18:04;;;;;;;22.30;16.38;;;;;;;;;;5146037;27;20046;-73
2021/10/22 08:22:27;;;;;;;16.25;11.77;;;;;;;;;;5102637;27;21122;-72
2021/10/22 08:25:48;;;;;;;22.92;13.30;;;;;;;;;;5107617;27;20462;-74
2021/10/22 08:28:52;;;;;;;20.63;14.07;;;;;;;;;;5066264;28;20795;-70
2021/10/22 08:31:18;;;;;;;22.70;14.45;;;;;;;;;;5067100;28;20033;-71
2021/10/22 08:35:18;;;;;;;17.88;10.95;;;;;;;;;;5048038;28;20829;-77
2021/10/22 08:43:16;;;;;;;23.77;11.98;;;;;;;;;;5103821;27;20384;-77
2021/10/22 08:47:12;;;;;;;32.70;20.05;;;;;;;;;;5108404;27;20790;-75
2021/10/22 08:51:06;;;;;;;28.88;17.67;;;;;;;;;;5088436;27;20405;-72
2021/10/22 08:53:33;;;;;;;20.92;13.57;;;;;;;;;;5089408;28;20029;-72
2021/10/22 08:56:42;;;;;;;33.17;18.67;;;;;;;;;;5109227;27;20454;-74
2021/10/22 08:59:09;;;;;;;21.63;12.68;;;;;;;;;;5109712;28;20089;-72
2021/10/22 09:02:02;;;;;;;20.02;11.52;;;;;;;;;;5107985;28;20020;-73
2021/10/22 09:05:25;;;;;;;16.10;10.80;;;;;;;;;;5107392;27;20454;-73
2021/10/22 09:07:53;;;;;;;19.55;11.13;;;;;;;;;;5106928;28;20024;-73
2021/10/22 09:10:27;;;;;;;16.95;10.85;;;;;;;;;;5105163;28;21067;-74
2021/10/22 09:12:54;;;;;;;14.57;10.23;;;;;;;;;;5103902;28;20671;-74
2021/10/22 09:15:23;;;;;;;14.98;9.23;;;;;;;;;;5106546;28;20058;-73
2021/10/22 09:19:36;;;;;;;15.90;9.18;;;;;;;;;;5103611;27;20442;-72
2021/10/22 09:23:44;;;;;;;14.40;8.80;;;;;;;;;;5108067;27;20393;-73
2021/10/22 09:26:15;;;;;;;17.15;9.90;;;;;;;;;;5107958;28;20607;-72
2021/10/22 09:28:42;;;;;;;14.70;8.85;;;;;;;;;;5107312;28;20031;-72
2021/10/22 09:31:09;;;;;;;15.23;10.18;;;;;;;;;;5109050;28;20024;-71
2021/10/22 09:33:35;;;;;;;15.88;9.65;;;;;;;;;;5107858;28;20018;-70
2021/10/22 09:36:01;;;;;;;14.05;10.48;;;;;;;;;;5108545;28;20764;-71
2021/10/22 09:38:29;;;;;;;12.63;9.15;;;;;;;;;;5109582;28;20020;-71
2021/10/22 09:41:04;;;;;;;19.90;12.77;;;;;;;;;;5110011;28;20024;-73
2021/10/22 09:43:37;;;;;;;14.48;9.75;;;;;;;;;;5110065;28;20500;-74
2021/10/22 09:49:27;;;;;;;11.98;8.30;;;;;;;;;;5109139;27;20513;-75
2021/10/22 09:51:55;;;;;;;13.77;7.78;;;;;;;;;;5105139;28;20046;-75
2021/10/22 09:56:44;;;;;;;13.27;8.75;;;;;;;;;;5109089;27;20401;-73
2021/10/22 09:59:27;;;;;;;16.75;11.15;;;;;;;;;;5109060;27;20446;-72
2021/10/22 10:01:57;;;;;;;16.70;11.63;;;;;;;;;;5109911;28;20066;-72
2021/10/22 10:04:26;;;;;;;13.65;9.82;;;;;;;;;;5109786;28;20028;-73
2021/10/22 10:06:53;;;;;;;13.48;8.05;;;;;;;;;;5109355;28;20384;-73
2021/10/22 10:09:21;;;;;;;13.98;8.90;;;;;;;;;;5109908;28;20429;-73
2021/10/22 10:11:48;;;;;;;11.80;8.10;;;;;;;;;;5110085;28;20028;-74
2021/10/22 10:14:16;;;;;;;17.02;9.05;;;;;;;;;;5106126;28;20088;-71
2021/10/22 10:16:44;;;;;;;11.57;7.57;;;;;;;;;;5107521;28;20039;-71
2021/10/22 10:19:12;;;;;;;14.38;8.35;;;;;;;;;;5107454;28;20563;-72
2021/10/22 10:21:48;;;;;;;13.98;8.40;;;;;;;;;;5105517;28;20044;-72
2021/10/22 10:24:17;;;;;;;16.55;9.25;;;;;;;;;;5105961;28;20123;-71
2021/10/22 10:26:43;;;;;;;17.02;10.63;;;;;;;;;;5106287;28;20024;-70
2021/10/22 10:29:10;;;;;;;20.85;12.93;;;;;;;;;;5106668;28;20028;-68
2021/10/22 10:31:42;;;;;;;12.45;9.45;;;;;;;;;;5108035;28;20020;-70
2021/10/22 10:34:28;;;;;;;13.25;8.27;;;;;;;;;;5031036;27;2502481;-68
2021/10/22 10:36:59;;;;;;;15.23;10.48;;;;;;;;;;5095654;28;20072;-69
2021/10/22 10:39:44;;;;;;;12.35;7.72;;;;;;;;;;5108819;28;20324;-71
2021/10/22 10:42:51;;;;;;;11.75;7.35;;;;;;;;;;5106459;27;20434;-71
2021/10/22 10:45:26;;;;;;;13.35;7.43;;;;;;;;;;5109492;28;20028;-72
2021/10/22 10:48:55;;;;;;;11.88;8.02;;;;;;;;;;5105968;27;20113;-70
2021/10/22 10:53:17;;;;;;;18.27;10.50;;;;;;;;;;5131364;27;20112;-73
2021/10/22 10:56:07;;;;;;;13.07;7.93;;;;;;;;;;5110409;27;20461;-71
2021/10/22 10:58:44;;;;;;;19.17;10.77;;;;;;;;;;5110863;28;20039;-71
2021/10/22 11:01:35;;;;;;;14.35;8.10;;;;;;;;;;5110447;28;20020;-70
2021/10/22 11:04:36;;;;;;;13.23;8.60;;;;;;;;;;5109846;27;20458;-71
2021/10/22 11:07:22;;;;;;;14.38;7.55;;;;;;;;;;5110741;28;20031;-71
2021/10/22 11:09:51;;;;;;;10.20;6.22;;;;;;;;;;5110414;28;20024;-72
2021/10/22 11:12:17;;;;;;;10.13;6.60;;;;;;;;;;5092539;28;20353;-70
2021/10/22 11:14:44;;;;;;;10.27;6.55;;;;;;;;;;5090053;28;20021;-70
2021/10/22 11:17:10;;;;;;;9.48;6.72;;;;;;;;;;5098633;28;20024;-71
2021/10/22 11:20:07;;;;;;;10.45;6.20;;;;;;;;;;5115091;27;20368;-73
2021/10/22 11:22:33;;;;;;;10.23;6.97;;;;;;;;;;5090975;28;20168;-69
2021/10/22 11:24:59;;;;;;;9.85;6.70;;;;;;;;;;5108976;28;20483;-71
2021/10/22 11:27:25;;;;;;;8.65;5.50;;;;;;;;;;5099409;28;20036;-70
2021/10/22 11:29:53;;;;;;;13.35;8.68;;;;;;;;;;5099813;28;20027;-71
2021/10/22 11:32:23;;;;;;;10.73;7.20;;;;;;;;;;5098372;28;20460;-70
2021/10/22 11:34:53;;;;;;;7.43;5.22;;;;;;;;;;5088506;28;20060;-75
2021/10/22 11:37:21;;;;;;;10.68;6.65;;;;;;;;;;5105169;28;20360;-75
2021/10/22 11:39:47;;;;;;;12.70;7.10;;;;;;;;;;5107855;28;20036;-81
2021/10/22 11:42:22;;;;;;;11.15;5.88;;;;;;;;;;5105333;28;20737;-77
2021/10/22 11:45:05;;;;;;;10.98;5.80;;;;;;;;;;5084352;28;20024;-70
2021/10/22 11:47:36;;;;;;;8.52;5.38;;;;;;;;;;5091459;28;20428;-70
2021/10/22 11:50:10;;;;;;;7.80;5.18;;;;;;;;;;5090187;28;20027;-70
2021/10/22 11:52:36;;;;;;;14.82;8.68;;;;;;;;;;5108932;28;20032;-70
2021/10/22 11:55:04;;;;;;;9.50;6.35;;;;;;;;;;5109640;28;20479;-70
2021/10/22 11:57:30;;;;;;;9.77;6.30;;;;;;;;;;5108826;28;20038;-70
2021/10/22 11:59:58;;;;;;;8.82;5.60;;;;;;;;;;5091268;28;20024;-70
2021/10/22 12:02:33;;;;;;;15.15;8.18;;;;;;;;;;5110032;28;20110;-69
2021/10/22 12:05:01;;;;;;;41.72;25.35;;;;;;;;;;5108842;28;20077;-70
2021/10/22 12:07:29;;;;;;;22.08;15.02;;;;;;;;;;5108103;28;20483;-69
2021/10/22 12:09:55;;;;;;;11.27;6.63;;;;;;;;;;5107129;28;20031;-69
2021/10/22 12:12:22;;;;;;;12.50;7.40;;;;;;;;;;5104394;28;20027;-68
2021/10/22 12:14:50;;;;;;;8.95;4.97;;;;;;;;;;5099213;28;20108;-67
2021/10/22 12:17:20;;;;;;;7.47;4.38;;;;;;;;;;5108385;28;20464;-69
2021/10/22 12:19:48;;;;;;;9.85;5.43;;;;;;;;;;5102761;28;20136;-69
2021/10/22 12:22:15;;;;;;;18.35;9.60;;;;;;;;;;5097779;28;20028;-70
2021/10/22 12:24:45;;;;;;;10.38;6.43;;;;;;;;;;5089370;28;20059;-70
2021/10/22 12:27:12;;;;;;;10.82;6.28;;;;;;;;;;5088611;28;20427;-70
2021/10/22 12:29:54;;;;;;;7.50;4.93;;;;;;;;;;5091969;28;20031;-70
2021/10/22 12:32:40;;;;;;;10.38;6.32;;;;;;;;;;5087068;28;20422;-69
2021/10/22 12:35:12;;;;;;;36.67;24.67;;;;;;;;;;5092170;28;20016;-68
2021/10/22 12:37:41;;;;;;;13.45;7.45;;;;;;;;;;5093508;28;20046;-69
2021/10/22 12:40:54;;;;;;;8.77;5.85;;;;;;;;;;5109951;27;20452;-69
2021/10/22 12:43:22;;;;;;;8.23;4.65;;;;;;;;;;5110226;28;20084;-69
2021/10/22 12:45:56;;;;;;;8.35;5.47;;;;;;;;;;5109410;28;20032;-70
2021/10/22 12:48:43;;;;;;;13.48;8.75;;;;;;;;;;5110414;28;20027;-70
2021/10/22 12:51:13;;;;;;;10.57;5.38;;;;;;;;;;5110930;28;20115;-71
2021/10/22 12:53:42;;;;;;;16.23;11.02;;;;;;;;;;5109314;28;20035;-70
2021/10/22 12:56:16;;;;;;;13.82;9.25;;;;;;;;;;5107289;28;20486;-70
2021/10/22 12:59:03;;;;;;;14.38;8.25;;;;;;;;;;5109260;28;20237;-69
2021/10/22 13:01:40;;;;;;;9.07;5.72;;;;;;;;;;5106508;28;20039;-71
2021/10/22 13:04:07;;;;;;;8.05;5.18;;;;;;;;;;5107835;28;20112;-71
2021/10/22 13:06:48;;;;;;;10.55;5.05;;;;;;;;;;5103825;28;20030;-70
2021/10/22 13:15:16;;;;;;;8.45;5.25;;;;;;;;;;5090263;28;20063;-71
2021/10/22 13:20:43;;;;;;;7.97;4.63;;;;;;;;;;5110368;28;20043;-70
2021/10/22 13:23:11;;;;;;;8.35;4.75;;;;;;;;;;5110303;28;20107;-71
2021/10/22 13:25:39;;;;;;;9.15;5.10;;;;;;;;;;5108996;28;20569;-70
2021/10/22 13:28:06;;;;;;;12.32;6.22;;;;;;;;;;5108636;28;20463;-71
2021/10/22 13:30:39;;;;;;;9.05;5.28;;;;;;;;;;5107873;28;20088;-70
2021/10/22 13:33:10;;;;;;;13.95;7.68;;;;;;;;;;5110220;28;20413;-69
2021/10/22 13:35:37;;;;;;;12.35;6.97;;;;;;;;;;5110401;28;20020;-70
2021/10/22 13:38:03;;;;;;;10.95;6.80;;;;;;;;;;5108541;28;20034;-70
2021/10/22 13:40:30;;;;;;;9.23;4.97;;;;;;;;;;5108828;28;20048;-70
2021/10/22 13:42:56;;;;;;;9.88;5.25;;;;;;;;;;5110103;28;20464;-70
2021/10/22 13:45:22;;;;;;;10.30;6.13;;;;;;;;;;5108458;28;20469;-69
2021/10/22 13:47:49;;;;;;;8.68;5.15;;;;;;;;;;5109847;28;20022;-70
2021/10/22 13:50:15;;;;;;;12.75;7.60;;;;;;;;;;5107425;28;20506;-71
2021/10/22 13:52:41;;;;;;;13.55;9.05;;;;;;;;;;5096048;28;20449;-71
2021/10/22 13:55:08;;;;;;;22.60;12.13;;;;;;;;;;5096367;28;20016;-72
2021/10/22 13:57:34;;;;;;;17.92;9.52;;;;;;;;;;5096281;28;20472;-71
2021/10/22 14:00:00;;;;;;;18.25;9.00;;;;;;;;;;5094578;28;20043;-69
2021/10/22 14:02:26;;;;;;;14.77;6.78;;;;;;;;;;5096404;28;20101;-70
2021/10/22 14:04:53;;;;;;;9.57;6.30;;;;;;;;;;5096095;28;20024;-69
2021/10/22 14:07:19;;;;;;;11.65;6.63;;;;;;;;;;5095859;28;20051;-71
2021/10/22 14:09:46;;;;;;;11.57;6.80;;;;;;;;;;5094845;28;20024;-70
2021/10/22 14:16:30;;;;;;;10.98;7.07;;;;;;;;;;5111824;27;20396;-71
2021/10/22 14:31:33;;;;;;;8.98;5.57;;;;;;;;;;5111406;27;20392;-71
2021/10/22 14:34:00;;;;;;;9.82;5.72;;;;;;;;;;5110888;28;20051;-69
2021/10/22 14:36:43;;;;;;;10.93;6.03;;;;;;;;;;5111857;27;20442;-69
2021/10/22 14:40:15;;;;;;;17.15;10.57;;;;;;;;;;5112028;27;20938;-70
2021/10/22 14:42:43;;;;;;;19.77;10.43;;;;;;;;;;5110809;28;20023;-69
2021/10/22 14:46:50;;;;;;;14.82;9.13;;;;;;;;;;5111303;27;20453;-70
2021/10/22 14:49:20;;;;;;;54.25;31.42;;;;;;;;;;5109138;28;20066;-70
2021/10/22 14:54:33;;;;;;;51.60;29.65;;;;;;;;;;5110062;28;20430;-71
2021/10/22 14:57:00;;;;;;;43.63;28.48;;;;;;;;;;5109829;28;20055;-70
2021/10/22 14:59:27;;;;;;;35.85;22.95;;;;;;;;;;5110496;28;20494;-70
2021/10/22 15:01:54;;;;;;;28.05;18.10;;;;;;;;;;5109956;28;20472;-70
2021/10/22 15:04:21;;;;;;;45.75;27.65;;;;;;;;;;5110720;28;20023;-70
2021/10/22 15:06:47;;;;;;;26.77;17.95;;;;;;;;;;5110816;28;20034;-70
2021/10/22 15:09:14;;;;;;;38.40;22.58;;;;;;;;;;5110440;28;20069;-70
2021/10/22 15:11:40;;;;;;;33.17;20.25;;;;;;;;;;5110608;28;20020;-70
2021/10/22 15:14:06;;;;;;;39.22;21.88;;;;;;;;;;5110601;28;20069;-70
2021/10/22 15:18:46;;;;;;;33.83;23.65;;;;;;;;;;5111496;27;20435;-70
2021/10/22 15:21:16;;;;;;;53.05;32.33;;;;;;;;;;5111096;28;20028;-70
2021/10/22 15:25:06;;;;;;;66.30;44.63;;;;;;;;;;5110943;27;20397;-71
2021/10/22 15:27:47;;;;;;;65.90;41.45;;;;;;;;;;5173307;27;20314;-71
2021/10/22 15:30:13;;;;;;;48.95;28.40;;;;;;;;;;5152003;27;20160;-71
2021/10/22 15:32:40;;;;;;;32.22;22.13;;;;;;;;;;5152299;27;20018;-71
2021/10/22 15:36:35;;;;;;;28.02;18.42;;;;;;;;;;5111375;27;20434;-68
2021/10/22 15:39:03;;;;;;;33.03;20.17;;;;;;;;;;5110961;28;20039;-71
2021/10/22 15:42:45;;;;;;;38.47;23.90;;;;;;;;;;5111340;27;20458;-71
2021/10/22 15:45:11;;;;;;;45.78;32.63;;;;;;;;;;5110935;28;20024;-71
2021/10/22 15:49:10;;;;;;;48.38;34.83;;;;;;;;;;5111385;27;20454;-70
2021/10/22 15:52:44;;;;;;;66.05;44.30;;;;;;;;;;5110771;27;20884;-71
2021/10/22 15:56:08;;;;;;;81.85;54.08;;;;;;;;;;5111813;27;20462;-70
2021/10/22 15:58:35;;;;;;;74.43;50.88;;;;;;;;;;5110819;28;20088;-71
2021/10/22 16:01:01;;;;;;;62.22;43.65;;;;;;;;;;5111153;28;20024;-71